createdAt,value
2018-11-03T05:24:21.587Z,10.82
2018-11-03T05:26:49.781Z,10.87
2018-11-03T05:39:08.803Z,9.60
2018-11-03T05:41:36.926Z,9.23
2018-11-03T05:44:05.059Z,9.70
2018-11-03T05:46:33.348Z,8.70
2018-11-03T05:49:01.361Z,8.50
2018-11-03T05:51:29.525Z,9.13
2018-11-03T05:53:57.679Z,9.43
2018-11-03T05:56:25.855Z,10.23
2018-11-03T06:18:33.897Z,9.40
2018-11-03T06:21:02.057Z,9.17
2018-11-03T06:23:30.285Z,9.60
2018-11-03T06:25:58.468Z,11.47
2018-11-03T06:28:26.623Z,10.57
2018-11-03T06:30:54.764Z,9.50
2018-11-03T06:33:22.901Z,10.50
2018-11-03T06:35:51.055Z,9.50
2018-11-03T06:38:19.221Z,9.93
2018-11-03T06:40:47.408Z,10.47
2018-11-03T06:43:15.585Z,12.37
2018-11-03T06:45:43.759Z,12.37
2018-11-03T08:45:54.159Z,15.70
2018-11-03T08:48:22.488Z,16.00
2018-11-03T08:50:50.635Z,15.97
2018-11-03T08:53:18.867Z,15.90
2018-11-03T08:55:48.070Z,16.17
2018-11-03T08:58:16.274Z,15.50
2018-11-03T09:00:44.497Z,16.10
2018-11-03T09:03:12.703Z,15.85
2018-11-03T09:05:40.923Z,15.45
2018-11-03T09:08:09.163Z,15.28
2018-11-03T09:10:37.359Z,16.73
2018-11-03T09:13:05.637Z,15.95
2018-11-03T09:15:33.835Z,16.50
2018-11-03T09:18:02.040Z,15.85
2018-11-03T09:20:30.237Z,15.15
2018-11-03T09:22:58.437Z,15.25
2018-11-03T09:25:26.629Z,16.57
2018-11-03T09:27:54.842Z,16.60
2018-11-03T09:30:23.061Z,16.80
2018-11-03T09:32:51.288Z,16.67
2018-11-03T09:35:19.490Z,16.10
2018-11-03T09:37:47.752Z,17.20
2018-11-03T09:40:17.060Z,15.73
2018-11-03T09:42:46.201Z,16.27
2018-11-03T09:45:14.694Z,16.30
2018-11-03T09:47:43.275Z,16.07
2018-11-03T09:50:13.119Z,17.00
2018-11-03T09:52:41.691Z,16.27
2018-11-03T09:55:12.570Z,16.90
2018-11-03T09:57:40.862Z,16.30
2018-11-03T10:00:11.450Z,16.90
2018-11-03T10:02:40.065Z,16.40
2018-11-03T10:05:09.390Z,17.15
2018-11-03T10:07:37.862Z,17.37
2018-11-03T10:10:07.846Z,17.60
2018-11-03T10:12:36.059Z,17.00
2018-11-03T10:15:04.266Z,16.40
2018-11-03T10:17:32.462Z,16.80
2018-11-03T10:20:00.692Z,16.67
2018-11-03T10:22:28.974Z,17.65
2018-11-03T10:24:57.098Z,16.85
2018-11-03T10:27:25.323Z,16.95
2018-11-03T10:29:53.544Z,18.80
2018-11-03T10:32:21.767Z,18.50
2018-11-03T10:34:49.986Z,20.20
2018-11-03T10:37:18.182Z,19.57
2018-11-03T10:39:46.390Z,19.87
2018-11-03T10:42:14.619Z,18.90
2018-11-03T10:44:42.824Z,20.40
2018-11-03T10:47:11.034Z,19.80
2018-11-03T10:49:42.546Z,19.83
2018-11-03T10:52:11.478Z,21.68
2018-11-03T10:54:39.766Z,20.68
2018-11-03T10:57:08.348Z,19.30
2018-11-03T10:59:36.562Z,19.50
2018-11-03T11:02:10.211Z,20.43
2018-11-03T11:04:43.847Z,18.65
2018-11-03T11:08:19.149Z,19.40
2018-11-03T11:10:52.722Z,18.80
2018-11-03T11:13:22.858Z,18.45
2018-11-03T11:15:52.604Z,17.80
2018-11-03T11:18:20.946Z,18.70
2018-11-03T11:20:49.157Z,19.02
2018-11-03T11:23:17.393Z,23.15
2018-11-03T11:25:45.544Z,18.00
2018-11-03T11:28:13.764Z,18.60
2018-11-03T11:30:43.213Z,19.52
2018-11-03T11:33:12.850Z,19.57
2018-11-03T11:35:41.357Z,19.90
2018-11-03T11:38:10.356Z,19.48
2018-11-03T11:40:38.870Z,18.30
2018-11-03T11:43:07.794Z,18.00
2018-11-03T11:45:36.137Z,18.37
2018-11-03T11:48:04.357Z,19.02
2018-11-03T11:50:32.614Z,17.90
2018-11-03T11:53:00.838Z,18.45
2018-11-03T11:55:29.075Z,18.20
2018-11-03T11:57:57.288Z,17.87
2018-11-03T12:00:25.530Z,18.95
2018-11-03T12:02:53.730Z,18.45
2018-11-03T12:05:21.961Z,17.17
2018-11-03T12:07:50.177Z,16.52
2018-11-03T12:10:18.401Z,17.87
2018-11-03T12:12:46.594Z,18.10
2018-11-03T12:15:14.797Z,18.10
2018-11-03T12:17:43.027Z,17.10
2018-11-03T12:20:11.226Z,16.90
2018-11-03T12:22:39.842Z,17.20
2018-11-03T12:25:09.239Z,17.82
2018-11-03T12:27:37.655Z,17.85
2018-11-03T12:30:07.754Z,17.77
2018-11-03T12:32:35.950Z,17.62
2018-11-03T12:35:04.221Z,17.27
2018-11-03T12:37:32.429Z,16.55
2018-11-03T12:40:00.667Z,17.57
2018-11-03T12:42:28.867Z,17.23
2018-11-03T12:44:57.086Z,19.25
2018-11-03T12:47:25.317Z,16.45
2018-11-03T12:50:00.544Z,17.87
2018-11-03T12:52:30.038Z,17.73
2018-11-03T12:54:58.290Z,17.40
2018-11-03T12:57:26.526Z,17.37
2018-11-03T12:59:54.936Z,17.60
2018-11-03T13:02:23.167Z,17.30
2018-11-03T13:04:52.036Z,18.27
2018-11-03T13:07:20.285Z,18.42
2018-11-03T13:09:48.712Z,19.10
2018-11-03T13:12:17.009Z,19.20
2018-11-03T13:14:45.105Z,18.50
2018-11-03T13:17:13.304Z,18.13
2018-11-03T13:19:41.534Z,19.30
2018-11-03T13:22:09.743Z,19.07
2018-11-03T13:24:37.967Z,19.63
2018-11-03T13:27:06.177Z,18.77
2018-11-03T13:29:34.388Z,18.90
2018-11-03T13:32:02.612Z,18.60
2018-11-03T13:34:30.810Z,18.23
2018-11-03T13:36:59.003Z,19.23
2018-11-03T13:39:27.218Z,18.75
2018-11-03T13:41:55.402Z,19.70
2018-11-03T13:44:23.611Z,17.77
2018-11-03T13:46:51.826Z,18.15
2018-11-03T13:49:20.052Z,18.20
2018-11-03T13:51:48.250Z,17.45
2018-11-03T13:54:16.486Z,17.87
2018-11-03T13:56:44.720Z,17.35
2018-11-03T13:59:12.906Z,18.45
2018-11-03T14:01:41.128Z,17.55
2018-11-03T14:04:09.342Z,18.45
2018-11-03T14:06:37.594Z,17.65
2018-11-03T14:09:07.263Z,18.23
2018-11-03T14:11:35.462Z,17.30
2018-11-03T14:14:03.682Z,19.20
2018-11-03T14:16:31.882Z,18.73
2018-11-03T14:19:00.118Z,19.05
2018-11-03T14:21:28.322Z,20.27
2018-11-03T14:23:56.531Z,19.07
2018-11-03T14:26:24.730Z,19.75
2018-11-03T14:28:52.993Z,20.00
2018-11-03T14:31:21.159Z,21.75
2018-11-03T14:33:49.353Z,20.27
2018-11-03T14:36:17.633Z,20.88
2018-11-03T14:38:45.766Z,20.48
2018-11-03T14:41:13.996Z,18.87
2018-11-03T14:43:42.206Z,18.60
2018-11-03T14:46:10.426Z,17.70
2018-11-03T14:48:38.670Z,17.95
2018-11-03T14:51:06.943Z,18.20
2018-11-03T14:53:35.138Z,17.82
2018-11-03T14:56:03.389Z,18.80
2018-11-03T14:58:31.611Z,17.30
2018-11-03T15:00:59.834Z,18.80
2018-11-03T15:03:28.041Z,18.90
2018-11-03T15:05:56.270Z,18.57
2018-11-03T15:08:24.579Z,18.40
2018-11-03T15:10:52.737Z,18.67
2018-11-03T15:13:21.031Z,18.60
2018-11-03T15:15:49.189Z,18.42
2018-11-03T15:18:17.407Z,18.65
2018-11-03T15:20:45.638Z,18.17
2018-11-03T15:23:13.862Z,18.27
2018-11-03T15:25:42.098Z,18.67
2018-11-03T15:28:10.331Z,18.62
2018-11-03T15:30:38.548Z,18.67
2018-11-03T15:33:06.836Z,18.42
2018-11-03T15:35:35.046Z,18.60
2018-11-03T15:38:03.249Z,19.15
2018-11-03T15:40:31.486Z,17.70
2018-11-03T15:42:59.712Z,18.87
2018-11-03T15:45:27.906Z,19.75
2018-11-03T15:47:56.214Z,18.82
2018-11-03T15:50:24.333Z,18.55
2018-11-03T15:52:52.606Z,18.92
2018-11-03T15:55:20.842Z,18.82
2018-11-03T15:57:49.035Z,19.37
2018-11-03T16:00:18.815Z,19.00
2018-11-03T16:02:47.402Z,17.87
2018-11-03T16:05:16.248Z,19.48
2018-11-03T16:07:45.342Z,19.15
2018-11-03T16:10:13.562Z,20.05
2018-11-03T16:12:47.276Z,19.00
2018-11-03T16:15:15.665Z,18.17
2018-11-03T16:17:44.199Z,17.70
2018-11-03T16:20:13.114Z,19.75
2018-11-03T16:22:42.363Z,18.50
2018-11-03T16:25:10.842Z,19.03
2018-11-03T16:27:39.494Z,18.65
2018-11-03T16:30:10.130Z,18.70
2018-11-03T16:32:38.790Z,19.35
2018-11-03T16:35:07.574Z,18.90
2018-11-03T16:37:36.066Z,18.80
2018-11-03T16:40:05.042Z,19.73
2018-11-03T16:42:33.238Z,19.67
2018-11-03T16:45:01.475Z,19.32
2018-11-03T16:47:29.658Z,19.20
2018-11-03T16:49:57.854Z,19.62
2018-11-03T16:52:26.081Z,18.55
2018-11-03T16:54:54.311Z,19.60
2018-11-03T16:57:22.567Z,20.77
2018-11-03T16:59:50.746Z,19.70
2018-11-03T17:02:19.009Z,19.50
2018-11-03T17:04:47.260Z,19.17
2018-11-03T17:07:15.487Z,19.45
2018-11-03T17:09:43.711Z,19.65
2018-11-03T17:12:11.962Z,20.82
2018-11-03T17:14:40.171Z,19.77
2018-11-03T17:17:08.390Z,17.55
2018-11-03T17:19:36.608Z,18.62
2018-11-03T17:22:04.871Z,19.40
2018-11-03T17:24:33.110Z,19.25
2018-11-03T17:27:01.327Z,19.87
2018-11-03T17:29:29.574Z,19.90
2018-11-03T17:31:57.977Z,19.00
2018-11-03T17:34:26.166Z,20.23
2018-11-03T17:36:54.389Z,20.72
2018-11-03T17:39:22.590Z,21.52
2018-11-03T17:41:50.802Z,20.00
2018-11-03T17:44:19.118Z,19.02
2018-11-03T17:46:47.236Z,19.50
2018-11-03T17:49:15.467Z,19.87
2018-11-03T17:51:43.694Z,19.65
2018-11-03T17:54:11.904Z,21.97
2018-11-03T17:56:40.148Z,22.95
2018-11-03T17:59:08.342Z,24.00
2018-11-03T18:01:36.605Z,22.62
2018-11-03T18:04:04.775Z,21.25
2018-11-03T18:06:33.007Z,24.12
2018-11-03T18:09:01.226Z,22.67
2018-11-03T18:11:29.442Z,24.25
2018-11-03T18:13:57.654Z,26.77
2018-11-03T18:16:25.882Z,21.40
2018-11-03T18:18:54.113Z,21.60
2018-11-03T18:21:29.223Z,22.07
2018-11-03T18:23:57.454Z,27.05
2018-11-03T18:26:25.662Z,22.35
2018-11-03T18:28:53.873Z,21.70
2018-11-03T18:31:22.087Z,21.07
2018-11-03T18:33:50.326Z,21.90
2018-11-03T18:36:18.584Z,21.52
2018-11-03T18:38:46.779Z,22.58
2018-11-03T18:41:15.011Z,21.85
2018-11-03T18:43:43.216Z,22.15
2018-11-03T18:46:11.430Z,21.10
2018-11-03T18:48:39.640Z,22.98
2018-11-03T18:51:07.850Z,22.22
2018-11-03T18:53:36.064Z,26.48
2018-11-03T18:56:04.575Z,21.90
2018-11-03T18:58:32.772Z,21.33
2018-11-03T19:01:00.999Z,23.67
2018-11-03T19:03:29.227Z,22.60
2018-11-03T19:05:57.426Z,23.15
2018-11-03T19:08:25.634Z,22.13
2018-11-03T19:10:53.858Z,21.40
2018-11-03T19:13:22.078Z,22.90
2018-11-03T19:15:50.283Z,22.40
2018-11-03T19:18:18.501Z,24.07
2018-11-03T19:20:46.719Z,23.02
2018-11-03T19:23:14.947Z,23.05
2018-11-03T19:25:43.142Z,24.57
2018-11-03T19:28:11.345Z,24.05
2018-11-03T19:30:39.546Z,24.18
2018-11-03T19:33:07.742Z,24.52
2018-11-03T19:35:35.940Z,25.62
2018-11-03T19:38:04.180Z,25.02
2018-11-03T19:40:32.372Z,24.55
2018-11-03T19:43:00.577Z,25.70
2018-11-03T19:45:28.782Z,26.20
2018-11-03T19:47:57.036Z,27.05
2018-11-03T19:50:25.203Z,27.00
2018-11-03T19:52:53.419Z,27.13
2018-11-03T19:55:21.672Z,28.35
2018-11-03T19:57:49.874Z,27.70
2018-11-03T20:00:18.079Z,26.00
2018-11-03T20:02:46.879Z,28.15
2018-11-03T20:05:14.928Z,27.80
2018-11-03T20:07:44.019Z,29.83
2018-11-03T20:10:12.619Z,29.90
2018-11-03T20:12:40.722Z,30.05
2018-11-03T20:15:10.222Z,29.72
2018-11-03T20:17:38.464Z,30.50
2018-11-03T20:20:08.210Z,29.85
2018-11-03T20:22:36.459Z,30.43
2018-11-03T20:25:05.803Z,28.63
2018-11-03T20:27:34.071Z,30.73
2018-11-03T20:30:02.271Z,30.33
2018-11-03T20:32:30.502Z,30.90
2018-11-03T20:34:58.727Z,28.77
2018-11-03T20:37:26.934Z,29.63
2018-11-03T20:39:55.132Z,32.50
2018-11-03T20:42:23.329Z,32.60
2018-11-03T20:44:51.538Z,31.77
2018-11-03T20:47:19.750Z,29.50
2018-11-03T20:49:47.946Z,30.17
2018-11-03T20:52:16.145Z,29.63
2018-11-03T20:54:44.380Z,29.10
2018-11-03T20:57:12.614Z,28.47
2018-11-03T20:59:40.855Z,25.65
2018-11-03T21:02:09.190Z,25.90
2018-11-03T21:04:37.306Z,24.82
2018-11-03T21:07:05.711Z,23.83
2018-11-03T21:09:33.951Z,24.45
2018-11-03T21:12:02.169Z,24.18
2018-11-03T21:14:30.394Z,21.35
2018-11-03T21:16:58.618Z,21.07
2018-11-03T21:19:26.844Z,21.27
2018-11-03T21:21:55.046Z,20.77
2018-11-03T21:24:23.322Z,19.60
2018-11-03T21:26:51.562Z,21.85
2018-11-03T21:29:19.774Z,22.85
2018-11-03T21:31:48.055Z,24.80
2018-11-03T21:34:16.242Z,24.50
2018-11-03T21:36:44.460Z,23.70
2018-11-03T21:39:12.699Z,22.30
2018-11-03T21:41:40.919Z,23.15
2018-11-03T21:44:09.138Z,23.35
2018-11-03T21:46:37.500Z,22.37
2018-11-03T21:49:05.909Z,22.85
2018-11-03T21:51:34.126Z,22.15
2018-11-03T21:54:02.350Z,23.02
2018-11-03T21:56:30.579Z,22.58
2018-11-03T22:01:39.863Z,23.50
2018-11-03T22:04:08.076Z,22.82
2018-11-03T22:06:36.294Z,23.20
2018-11-03T22:09:07.334Z,25.02
2018-11-03T22:11:35.942Z,23.57
2018-11-03T22:14:04.162Z,23.00
2018-11-03T22:16:32.438Z,22.40
2018-11-03T22:19:00.675Z,22.00
2018-11-03T22:21:29.667Z,23.35
2018-11-03T22:23:57.843Z,22.70
2018-11-03T22:26:26.042Z,23.62
2018-11-03T22:28:54.379Z,22.70
2018-11-03T22:31:22.578Z,23.90
2018-11-03T22:33:50.801Z,25.52
2018-11-03T22:36:18.994Z,24.07
2018-11-03T22:38:47.231Z,23.45
2018-11-03T22:41:15.442Z,25.52
2018-11-03T22:43:43.653Z,25.10
2018-11-03T22:46:11.898Z,26.33
2018-11-03T22:48:40.174Z,34.80
2018-11-03T22:51:12.699Z,26.40
2018-11-03T22:53:40.869Z,26.97
2018-11-03T22:56:09.085Z,26.25
2018-11-03T22:58:37.314Z,28.30
2018-11-03T23:01:05.626Z,26.35
2018-11-03T23:03:33.834Z,27.15
2018-11-03T23:06:02.090Z,27.20
2018-11-03T23:08:30.338Z,26.80
2018-11-03T23:10:58.563Z,27.48
2018-11-03T23:13:26.873Z,26.30
2018-11-03T23:15:55.037Z,25.30
2018-11-03T23:18:23.258Z,26.68
2018-11-03T23:20:51.467Z,25.10
2018-11-03T23:23:19.698Z,25.32
2018-11-03T23:25:47.953Z,24.35
2018-11-03T23:28:16.163Z,23.83
2018-11-03T23:30:44.349Z,24.72
2018-11-03T23:33:12.546Z,26.07
2018-11-03T23:35:40.747Z,27.25
2018-11-03T23:38:09.003Z,27.27
2018-11-03T23:40:37.151Z,25.77
2018-11-03T23:43:05.409Z,26.55
2018-11-03T23:45:33.634Z,25.05
2018-11-03T23:48:01.830Z,27.42
2018-11-03T23:50:30.090Z,27.25
2018-11-03T23:52:58.270Z,27.07
2018-11-03T23:55:26.476Z,28.20
2018-11-03T23:57:54.682Z,28.03
